Sophie Blue — CRXK3 — position and weather

sailwx.info

Track history (hours):
 
Tides and Currents Weather Stations Pressure Air Temp Water Temp Dewpoint Dewpoint Depression Visibility Wind Speed Wind Dir Waves Ship Positions

Sophie Blue

Last reported at 2016-May-22 12:15 UTC. Time now 2016-May-30 05:04 UTC.
Position N 43°16' E 006°37'.

; draft 2.5 m.

Type: Other ship. MMSI: 255901270.

Date/timePositionNaut miles runAvg speedWind from/ knotsBaromVisibWave heightAir tempDewpointWater temp
2016-May-22 12:15N 43°16' E 006°37'0 0.0
2016-May-21 18:27N 43°16' E 006°37'0 0.0
2016-May-21 15:18N 43°16' E 006°37'  
2016-May-19 07:23N 43°26' E 007°01'8 9.3
2016-May-19 06:33N 43°32' E 007°09'9 9.2
2016-May-19 05:33N 43°38' E 007°18'62 8.5
2016-May-18 22:19N 44°12' E 008°30'7 9.2
2016-May-18 21:33N 44°17' E 008°36'9 9.4
2016-May-18 20:34N 44°17' E 008°49'10 9.5
2016-May-18 19:34N 44°15' E 009°02'10 9.9
2016-May-18 18:34N 44°12' E 009°15'9 9.4
2016-May-18 17:33N 44°07' E 009°26'9 9.0
2016-May-18 16:33N 44°04' E 009°38'9 8.9
2016-May-18 15:34N 43°59' E 009°48'9 8.8
2016-May-18 14:34N 43°56' E 009°60'9 8.9
2016-May-18 13:34N 43°53' E 010°11'3 2.5
2016-May-18 12:32N 43°51' E 010°14'0 0.0
2016-May-18 11:32N 43°51' E 010°14'0 0.0
2016-May-18 10:29N 43°51' E 010°14'0 0.0
2016-May-18 09:32N 43°51' E 010°14'0 0.0
2016-May-18 08:32N 43°51' E 010°14'0 0.0
2016-May-18 07:32N 43°51' E 010°14'0 0.0
2016-May-18 06:29N 43°51' E 010°14'0 0.0
2016-May-18 05:23N 43°51' E 010°14'0 0.0
2016-May-18 04:32N 43°51' E 010°14'0 0.0
2016-May-18 03:26N 43°51' E 010°14'0 0.0
2016-May-18 02:26N 43°51' E 010°14'0 0.0
2016-May-18 01:32N 43°51' E 010°14'0 0.0
2016-May-18 00:29N 43°51' E 010°14'0 0.0
2016-May-17 23:32N 43°51' E 010°14'0 0.0
2016-May-17 22:32N 43°51' E 010°14'0 0.0
2016-May-17 21:32N 43°51' E 010°14'0 0.0
2016-May-17 20:32N 43°51' E 010°14'0 0.0
2016-May-17 19:32N 43°51' E 010°14'0 0.0
2016-May-17 18:29N 43°51' E 010°14'0 0.0
2016-May-17 17:32N 43°51' E 010°14'0 0.0
2016-May-17 16:32N 43°51' E 010°14'0 0.0
2016-May-17 15:32N 43°51' E 010°14'0 0.0
2016-May-17 14:32N 43°51' E 010°14'0 0.0
2016-May-17 13:32N 43°51' E 010°14'0 0.0
2016-May-17 12:32N 43°51' E 010°14'0 0.0
2016-May-17 11:32N 43°51' E 010°14'0 0.0
2016-May-17 10:26N 43°51' E 010°14'0 0.0
2016-May-17 09:32N 43°51' E 010°14'0 0.0
2016-May-17 08:32N 43°51' E 010°14'0 0.0
2016-May-17 07:32N 43°51' E 010°14'0 0.0
2016-May-17 06:26N 43°51' E 010°14'0 0.0
2016-May-17 05:29N 43°51' E 010°14'0 0.0
2016-May-17 04:32N 43°51' E 010°14'0 0.0
2016-May-17 03:32N 43°51' E 010°14'0 0.0
2016-May-17 02:29N 43°51' E 010°14'0 0.0
2016-May-17 01:29N 43°51' E 010°14'0 0.0
2016-May-17 00:32N 43°51' E 010°14'0 0.0
2016-May-16 23:32N 43°51' E 010°14'0 0.0
2016-May-16 22:32N 43°51' E 010°14'0 0.0
2016-May-16 21:23N 43°51' E 010°14'0 0.0
2016-May-16 20:32N 43°51' E 010°14'0 0.0
2016-May-16 19:23N 43°51' E 010°14'0 0.0
2016-May-16 18:32N 43°51' E 010°14'0 0.0
2016-May-16 17:32N 43°51' E 010°14'0 0.0
2016-May-16 16:32N 43°51' E 010°14'0 0.0
2016-May-16 15:32N 43°51' E 010°14'0 0.0
2016-May-16 14:32N 43°51' E 010°14'0 0.0
2016-May-16 13:32N 43°51' E 010°14'0 0.0
2016-May-16 12:32N 43°51' E 010°14'0 0.0
2016-May-16 11:32N 43°51' E 010°14'0 0.0
2016-May-16 10:32N 43°51' E 010°14'0 0.0
2016-May-16 09:29N 43°51' E 010°14'0 0.0
2016-May-16 08:29N 43°51' E 010°14'  
Track history (hours):
 
Tides and Currents Weather Stations Pressure Air Temp Water Temp Dewpoint Dewpoint Depression Visibility Wind Speed Wind Dir Waves Ship Positions

Sophie Blue

Last reported at 2016-May-22 12:15 UTC. Time now 2016-May-30 05:04 UTC.
Position N 43°16' E 006°37'.

; draft 2.5 m.

Type: Other ship. MMSI: 255901270.

Date/timePositionNaut miles runAvg speedWind from/ knotsBaromVisibWave heightAir tempDewpointWater temp
2016-May-22 12:15N 43°16' E 006°37'0 0.0
2016-May-21 18:27N 43°16' E 006°37'0 0.0
2016-May-21 15:18N 43°16' E 006°37'  
2016-May-19 07:23N 43°26' E 007°01'8 9.3
2016-May-19 06:33N 43°32' E 007°09'9 9.2
2016-May-19 05:33N 43°38' E 007°18'62 8.5
2016-May-18 22:19N 44°12' E 008°30'7 9.2
2016-May-18 21:33N 44°17' E 008°36'9 9.4
2016-May-18 20:34N 44°17' E 008°49'10 9.5
2016-May-18 19:34N 44°15' E 009°02'10 9.9
2016-May-18 18:34N 44°12' E 009°15'9 9.4
2016-May-18 17:33N 44°07' E 009°26'9 9.0
2016-May-18 16:33N 44°04' E 009°38'9 8.9
2016-May-18 15:34N 43°59' E 009°48'9 8.8
2016-May-18 14:34N 43°56' E 009°60'9 8.9
2016-May-18 13:34N 43°53' E 010°11'3 2.5
2016-May-18 12:32N 43°51' E 010°14'0 0.0
2016-May-18 11:32N 43°51' E 010°14'0 0.0
2016-May-18 10:29N 43°51' E 010°14'0 0.0
2016-May-18 09:32N 43°51' E 010°14'0 0.0
2016-May-18 08:32N 43°51' E 010°14'0 0.0
2016-May-18 07:32N 43°51' E 010°14'0 0.0
2016-May-18 06:29N 43°51' E 010°14'0 0.0
2016-May-18 05:23N 43°51' E 010°14'0 0.0
2016-May-18 04:32N 43°51' E 010°14'0 0.0
2016-May-18 03:26N 43°51' E 010°14'0 0.0
2016-May-18 02:26N 43°51' E 010°14'0 0.0
2016-May-18 01:32N 43°51' E 010°14'0 0.0
2016-May-18 00:29N 43°51' E 010°14'0 0.0
2016-May-17 23:32N 43°51' E 010°14'0 0.0
2016-May-17 22:32N 43°51' E 010°14'0 0.0
2016-May-17 21:32N 43°51' E 010°14'0 0.0
2016-May-17 20:32N 43°51' E 010°14'0 0.0
2016-May-17 19:32N 43°51' E 010°14'0 0.0
2016-May-17 18:29N 43°51' E 010°14'0 0.0
2016-May-17 17:32N 43°51' E 010°14'0 0.0
2016-May-17 16:32N 43°51' E 010°14'0 0.0
2016-May-17 15:32N 43°51' E 010°14'0 0.0
2016-May-17 14:32N 43°51' E 010°14'0 0.0
2016-May-17 13:32N 43°51' E 010°14'0 0.0
2016-May-17 12:32N 43°51' E 010°14'0 0.0
2016-May-17 11:32N 43°51' E 010°14'0 0.0
2016-May-17 10:26N 43°51' E 010°14'0 0.0
2016-May-17 09:32N 43°51' E 010°14'0 0.0
2016-May-17 08:32N 43°51' E 010°14'0 0.0
2016-May-17 07:32N 43°51' E 010°14'0 0.0
2016-May-17 06:26N 43°51' E 010°14'0 0.0
2016-May-17 05:29N 43°51' E 010°14'0 0.0
2016-May-17 04:32N 43°51' E 010°14'0 0.0
2016-May-17 03:32N 43°51' E 010°14'0 0.0
2016-May-17 02:29N 43°51' E 010°14'0 0.0
2016-May-17 01:29N 43°51' E 010°14'0 0.0
2016-May-17 00:32N 43°51' E 010°14'0 0.0
2016-May-16 23:32N 43°51' E 010°14'0 0.0
2016-May-16 22:32N 43°51' E 010°14'0 0.0
2016-May-16 21:23N 43°51' E 010°14'0 0.0
2016-May-16 20:32N 43°51' E 010°14'0 0.0
2016-May-16 19:23N 43°51' E 010°14'0 0.0
2016-May-16 18:32N 43°51' E 010°14'0 0.0
2016-May-16 17:32N 43°51' E 010°14'0 0.0
2016-May-16 16:32N 43°51' E 010°14'0 0.0
2016-May-16 15:32N 43°51' E 010°14'0 0.0
2016-May-16 14:32N 43°51' E 010°14'0 0.0
2016-May-16 13:32N 43°51' E 010°14'0 0.0
2016-May-16 12:32N 43°51' E 010°14'0 0.0
2016-May-16 11:32N 43°51' E 010°14'0 0.0
2016-May-16 10:32N 43°51' E 010°14'0 0.0
2016-May-16 09:29N 43°51' E 010°14'0 0.0
2016-May-16 08:29N 43°51' E 010°14'  

Dump ship's entire track history